createdAt,value
2018-04-14T00:01:30.477Z,99.90
2018-04-14T00:04:05.668Z,99.90
2018-04-14T00:06:40.795Z,99.90
2018-04-14T00:09:16.095Z,99.90
2018-04-14T00:11:51.398Z,99.90
2018-04-14T00:14:26.706Z,99.90
2018-04-14T00:17:02.089Z,99.90
2018-04-14T00:19:38.019Z,99.90
2018-04-14T00:22:13.141Z,99.90
2018-04-14T00:24:48.510Z,99.90
2018-04-14T00:27:23.785Z,99.90
2018-04-14T00:29:58.907Z,99.90
2018-04-14T00:32:34.128Z,99.90
2018-04-14T00:35:10.193Z,99.90
2018-04-14T00:37:45.347Z,99.90
2018-04-14T00:40:20.492Z,99.90
2018-04-14T00:42:55.768Z,99.90
2018-04-14T00:45:31.025Z,99.90
2018-04-14T00:48:06.903Z,99.90
2018-04-14T00:50:42.069Z,99.90
2018-04-14T00:53:35.045Z,99.90
2018-04-14T00:56:10.250Z,99.90
2018-04-14T00:58:45.384Z,99.90
2018-04-14T01:01:20.665Z,99.90
2018-04-14T01:03:56.012Z,99.90
2018-04-14T01:06:31.268Z,99.90
2018-04-14T01:09:06.620Z,99.90
2018-04-14T01:11:41.911Z,99.90
2018-04-14T01:14:17.173Z,99.90
2018-04-14T01:16:52.297Z,99.90
2018-04-14T01:19:28.334Z,99.90
2018-04-14T01:22:04.214Z,99.90
2018-04-14T01:24:40.252Z,99.90
2018-04-14T01:27:16.245Z,99.90
2018-04-14T01:29:52.231Z,99.90
2018-04-14T01:32:27.458Z,99.90
2018-04-14T01:35:02.808Z,99.90
2018-04-14T01:37:38.136Z,99.90
2018-04-14T01:40:13.478Z,99.90
2018-04-14T01:42:48.657Z,99.90
2018-04-14T01:45:23.930Z,99.90
2018-04-14T01:47:59.175Z,99.90
2018-04-14T01:50:34.484Z,99.90
2018-04-14T01:53:10.362Z,99.90
2018-04-14T01:55:45.565Z,99.90
2018-04-14T01:58:20.712Z,99.90
2018-04-14T02:00:55.813Z,99.90
2018-04-14T02:03:31.082Z,99.90
2018-04-14T02:06:06.260Z,99.90
2018-04-14T02:08:41.491Z,99.90
2018-04-14T02:11:16.742Z,99.90
2018-04-14T02:13:51.976Z,99.90
2018-04-14T02:16:27.984Z,99.90
2018-04-14T02:19:03.237Z,99.90
2018-04-14T02:21:38.648Z,99.90
2018-04-14T02:24:14.571Z,99.90
2018-04-14T02:26:50.916Z,99.90
2018-04-14T02:29:26.211Z,99.90
2018-04-14T02:32:02.170Z,99.90
2018-04-14T02:34:38.196Z,99.90
2018-04-14T02:37:13.448Z,99.90
2018-04-14T02:39:49.415Z,99.90
2018-04-14T02:42:24.580Z,99.90
2018-04-14T02:44:59.796Z,99.90
2018-04-14T02:47:34.924Z,99.90
2018-04-14T02:50:10.120Z,99.90
2018-04-14T02:52:45.279Z,99.90
2018-04-14T02:55:20.622Z,99.90
2018-04-14T02:57:56.730Z,99.90
2018-04-14T03:00:31.915Z,99.90
2018-04-14T03:03:08.174Z,99.90
2018-04-14T03:05:43.426Z,99.90
2018-04-14T03:08:18.656Z,99.90
2018-04-14T03:10:53.934Z,99.90
2018-04-14T03:13:29.105Z,99.90
2018-04-14T03:16:05.018Z,99.90
2018-04-14T03:18:40.145Z,99.90
2018-04-14T03:21:15.244Z,99.90
2018-04-14T03:23:50.531Z,99.90
2018-04-14T03:26:25.642Z,99.90
2018-04-14T03:29:00.897Z,99.90
2018-04-14T03:31:36.326Z,99.90
2018-04-14T03:34:12.313Z,99.90
2018-04-14T03:36:47.446Z,99.90
2018-04-14T03:39:22.827Z,99.90
2018-04-14T03:41:59.352Z,99.90
2018-04-14T03:44:34.744Z,99.90
2018-04-14T03:47:09.925Z,99.90
2018-04-14T03:49:45.222Z,99.90
2018-04-14T03:52:20.977Z,99.90
2018-04-14T03:54:56.143Z,99.90
2018-04-14T03:57:31.271Z,99.90
2018-04-14T04:00:06.544Z,99.90
2018-04-14T04:02:41.724Z,99.90
2018-04-14T04:05:17.657Z,99.90
2018-04-14T04:07:52.784Z,99.90
2018-04-14T04:10:28.854Z,99.90
2018-04-14T04:13:04.838Z,99.90
2018-04-14T04:15:40.002Z,99.90
2018-04-14T04:21:27.015Z,99.90
2018-04-14T04:24:19.901Z,99.90
2018-04-14T04:26:55.124Z,99.90
2018-04-14T04:29:30.261Z,99.90
2018-04-14T04:32:06.205Z,99.90
2018-04-14T04:34:41.515Z,99.90
2018-04-14T04:37:16.909Z,99.90
2018-04-14T04:39:52.245Z,99.90
2018-04-14T04:42:28.216Z,99.90
2018-04-14T04:45:03.324Z,99.90
2018-04-14T04:47:39.199Z,99.90
2018-04-14T04:50:15.145Z,99.90
2018-04-14T04:52:51.039Z,99.90
2018-04-14T04:55:26.306Z,99.90
2018-04-14T04:58:01.446Z,99.90
2018-04-14T05:00:36.757Z,99.90
2018-04-14T05:03:12.064Z,99.90
2018-04-14T05:05:47.445Z,99.90
2018-04-14T05:08:22.732Z,99.90
2018-04-14T05:10:57.932Z,99.90
2018-04-14T05:13:33.883Z,99.90
2018-04-14T05:16:09.081Z,99.90
2018-04-14T05:18:44.428Z,99.90
2018-04-14T05:21:19.536Z,99.90
2018-04-14T05:23:55.243Z,99.90
2018-04-14T05:26:30.379Z,99.90
2018-04-14T05:29:06.303Z,99.90
2018-04-14T05:31:42.283Z,99.90
2018-04-14T05:34:18.208Z,99.90
2018-04-14T05:36:53.412Z,99.90
2018-04-14T05:39:28.656Z,99.90
2018-04-14T05:42:04.072Z,99.90
2018-04-14T05:44:39.306Z,99.90
2018-04-14T05:47:14.368Z,99.90
2018-04-14T05:49:50.275Z,99.90
2018-04-14T05:52:25.361Z,99.90
2018-04-14T05:55:00.813Z,99.90
2018-04-14T05:57:36.806Z,99.90
2018-04-14T06:00:12.816Z,99.90
2018-04-14T06:02:47.902Z,99.90
2018-04-14T06:05:23.840Z,99.90
2018-04-14T06:07:59.152Z,99.90
2018-04-14T06:10:34.504Z,99.90
2018-04-14T06:13:10.606Z,99.90
2018-04-14T06:15:45.744Z,99.90
2018-04-14T06:18:20.856Z,99.90
2018-04-14T06:20:55.980Z,99.90
2018-04-14T06:23:31.156Z,99.90
2018-04-14T06:26:07.084Z,99.90
2018-04-14T06:28:42.318Z,99.90
2018-04-14T06:31:18.201Z,99.90
2018-04-14T06:33:54.221Z,99.90
2018-04-14T06:36:29.565Z,99.90
2018-04-14T06:39:05.629Z,99.90
2018-04-14T06:41:40.735Z,99.90
2018-04-14T06:44:16.736Z,99.90
2018-04-14T06:46:53.692Z,99.90
2018-04-14T06:49:29.729Z,99.90
2018-04-14T06:52:05.568Z,99.90
2018-04-14T06:54:41.509Z,99.90
2018-04-14T06:57:16.649Z,99.90
2018-04-14T06:59:51.789Z,99.90
2018-04-14T07:02:26.905Z,99.90
2018-04-14T07:05:02.109Z,99.90
2018-04-14T07:07:37.249Z,99.90
2018-04-14T07:10:12.484Z,99.90
2018-04-14T07:12:47.693Z,99.90
2018-04-14T07:15:23.026Z,99.90
2018-04-14T07:17:58.116Z,99.90
2018-04-14T07:20:33.323Z,99.90
2018-04-14T07:23:08.570Z,99.90
2018-04-14T07:25:44.470Z,99.90
2018-04-14T07:28:19.793Z,99.90
2018-04-14T07:30:55.005Z,99.90
2018-04-14T07:33:30.274Z,99.90
2018-04-14T07:36:05.412Z,99.90
2018-04-14T07:38:40.530Z,99.90
2018-04-14T07:41:16.409Z,99.90
2018-04-14T07:43:51.535Z,99.90
2018-04-14T07:46:26.884Z,99.90
2018-04-14T07:49:02.165Z,99.90
2018-04-14T07:51:37.574Z,99.90
2018-04-14T07:54:12.900Z,99.90
2018-04-14T07:56:48.208Z,99.20
2018-04-14T07:59:23.500Z,99.90
2018-04-14T08:01:58.646Z,99.90
2018-04-14T08:04:34.680Z,97.40
2018-04-14T08:07:10.028Z,97.30
2018-04-14T08:09:45.256Z,91.60
2018-04-14T08:12:21.348Z,87.90
2018-04-14T08:14:57.287Z,79.00
2018-04-14T08:17:32.515Z,78.90
2018-04-14T08:20:07.682Z,77.30
2018-04-14T08:22:46.436Z,71.90
2018-04-14T08:25:21.749Z,70.20
2018-04-14T08:27:56.982Z,71.80
2018-04-14T08:30:36.424Z,72.80
2018-04-14T08:33:11.580Z,74.20
2018-04-14T08:35:50.835Z,71.50
2018-04-14T08:38:26.122Z,71.40
2018-04-14T08:41:01.506Z,71.80
2018-04-14T08:43:36.594Z,70.20
2018-04-14T08:46:11.781Z,73.40
2018-04-14T08:48:47.107Z,66.80
2018-04-14T08:51:22.297Z,63.30
2018-04-14T08:53:58.189Z,63.90
2018-04-14T08:56:33.297Z,63.90
2018-04-14T08:59:08.435Z,63.90
2018-04-14T09:01:43.681Z,63.00
2018-04-14T09:04:19.905Z,64.40
2018-04-14T09:06:55.777Z,61.30
2018-04-14T09:09:31.115Z,61.10
2018-04-14T09:12:06.405Z,62.30
2018-04-14T09:14:41.740Z,60.60
2018-04-14T09:17:16.819Z,60.70
2018-04-14T09:19:52.066Z,57.00
2018-04-14T09:22:27.384Z,55.20
2018-04-14T09:25:03.374Z,51.90
2018-04-14T09:27:38.569Z,51.90
2018-04-14T09:30:15.876Z,53.70
2018-04-14T09:32:51.095Z,55.40
2018-04-14T09:35:27.018Z,55.60
2018-04-14T09:38:02.172Z,55.60
2018-04-14T09:40:37.275Z,54.90
2018-04-14T09:43:13.237Z,54.00
2018-04-14T09:45:50.053Z,52.60
2018-04-14T09:48:25.293Z,52.60
2018-04-14T09:51:00.551Z,52.60
2018-04-14T09:53:35.849Z,50.20
2018-04-14T09:56:11.182Z,51.40
2018-04-14T09:58:46.466Z,50.60
2018-04-14T10:01:27.472Z,50.30
2018-04-14T10:04:02.745Z,50.80
2018-04-14T10:06:37.999Z,49.20
2018-04-14T10:09:13.227Z,49.60
2018-04-14T10:11:48.428Z,50.70
2018-04-14T10:14:23.748Z,49.10
2018-04-14T10:16:58.928Z,47.20
2018-04-14T10:19:34.163Z,49.90
2018-04-14T10:22:09.383Z,49.60
2018-04-14T10:24:45.428Z,46.90
2018-04-14T10:27:20.604Z,46.90
2018-04-14T10:29:55.751Z,45.40
2018-04-14T10:32:31.795Z,45.30
2018-04-14T10:35:07.784Z,46.00
2018-04-14T10:37:43.157Z,45.90
2018-04-14T10:40:18.278Z,46.10
2018-04-14T10:42:53.568Z,46.60
2018-04-14T10:45:29.515Z,45.70
2018-04-14T10:48:05.495Z,45.70
2018-04-14T10:50:40.594Z,45.70
2018-04-14T10:53:15.821Z,46.20
2018-04-14T10:55:51.119Z,44.40
2018-04-14T10:58:26.295Z,42.70
2018-04-14T11:01:01.548Z,45.40
2018-04-14T11:03:36.844Z,43.90
2018-04-14T11:06:12.139Z,45.30
2018-04-14T11:08:47.483Z,44.40
2018-04-14T11:11:22.839Z,44.10
2018-04-14T11:13:58.031Z,43.60
2018-04-14T11:16:33.303Z,43.40
2018-04-14T11:19:08.465Z,43.50
2018-04-14T11:21:43.552Z,43.30
2018-04-14T11:24:18.815Z,44.80
2018-04-14T11:26:54.250Z,40.80
2018-04-14T11:29:30.176Z,42.90
2018-04-14T11:32:05.319Z,42.90
2018-04-14T11:34:40.603Z,41.90
2018-04-14T11:37:16.308Z,41.20
2018-04-14T11:39:52.289Z,41.30
2018-04-14T11:42:27.462Z,42.00
2018-04-14T11:45:03.312Z,40.00
2018-04-14T11:47:38.457Z,40.00
2018-04-14T11:50:13.773Z,41.40
2018-04-14T11:52:48.954Z,40.90
2018-04-14T11:55:24.250Z,40.80
2018-04-14T11:58:00.194Z,40.00
2018-04-14T12:00:35.812Z,40.10
2018-04-14T12:03:10.948Z,37.10
2018-04-14T12:05:46.281Z,39.30
2018-04-14T12:08:21.631Z,37.90
2018-04-14T12:10:56.908Z,39.10
2018-04-14T12:13:32.158Z,38.20
2018-04-14T12:16:07.552Z,37.60
2018-04-14T12:18:42.825Z,37.20
2018-04-14T12:21:18.172Z,36.80
2018-04-14T12:23:53.692Z,34.20
2018-04-14T12:26:28.918Z,35.70
2018-04-14T12:29:04.892Z,39.50
2018-04-14T12:31:40.902Z,37.40
2018-04-14T12:34:16.120Z,37.40
2018-04-14T12:36:51.385Z,36.70
2018-04-14T12:39:26.622Z,36.80
2018-04-14T12:42:02.596Z,39.70
2018-04-14T12:44:38.495Z,39.40
2018-04-14T12:47:14.417Z,38.80
2018-04-14T12:49:50.313Z,38.70
2018-04-14T12:52:25.504Z,38.60
2018-04-14T12:55:01.689Z,39.70
2018-04-14T12:57:37.569Z,36.00
2018-04-14T13:00:12.736Z,35.90
2018-04-14T13:02:47.961Z,37.60
2018-04-14T13:05:23.488Z,33.20
2018-04-14T13:07:58.994Z,33.90
2018-04-14T13:10:34.354Z,34.20
2018-04-14T13:13:09.619Z,34.00
2018-04-14T13:15:45.502Z,32.60
2018-04-14T13:18:20.692Z,32.50
2018-04-14T13:20:55.830Z,33.30
2018-04-14T13:23:31.084Z,32.40
2018-04-14T13:26:06.388Z,32.70
2018-04-14T13:28:41.584Z,34.90
2018-04-14T13:31:16.833Z,32.90
2018-04-14T13:33:51.992Z,33.50
2018-04-14T13:36:27.308Z,33.60
2018-04-14T13:39:02.557Z,33.20
2018-04-14T13:41:37.716Z,34.00
2018-04-14T13:44:12.843Z,34.70
2018-04-14T13:46:48.811Z,32.90
2018-04-14T13:49:24.061Z,32.80
2018-04-14T13:51:59.395Z,33.10
2018-04-14T13:54:34.689Z,32.70
2018-04-14T13:57:09.974Z,31.90
2018-04-14T13:59:45.091Z,31.90
2018-04-14T14:02:20.354Z,33.40
2018-04-14T14:04:55.604Z,32.70
2018-04-14T14:07:30.911Z,32.90
2018-04-14T14:10:06.007Z,33.50
2018-04-14T14:12:41.892Z,34.40
2018-04-14T14:15:18.024Z,34.30
2018-04-14T14:17:53.273Z,32.00
2018-04-14T14:20:28.504Z,32.00
2018-04-14T14:23:03.647Z,33.00
2018-04-14T14:25:38.944Z,32.30
2018-04-14T14:28:15.187Z,33.00
2018-04-14T14:30:50.375Z,35.30
2018-04-14T14:33:25.791Z,33.40
2018-04-14T14:36:01.705Z,34.10
2018-04-14T14:38:37.029Z,33.50
2018-04-14T14:41:12.392Z,33.80
2018-04-14T14:43:47.506Z,33.80
2018-04-14T14:46:22.812Z,36.30
2018-04-14T14:48:58.188Z,34.90
2018-04-14T14:51:34.183Z,33.90
2018-04-14T14:54:10.216Z,32.70
2018-04-14T14:56:45.382Z,32.70
2018-04-14T14:59:20.588Z,33.10
2018-04-14T15:01:55.843Z,33.50
2018-04-14T15:04:31.153Z,34.40
2018-04-14T15:07:06.434Z,34.70
2018-04-14T15:09:41.771Z,34.10
2018-04-14T15:12:17.083Z,33.50
2018-04-14T15:14:53.065Z,35.30
2018-04-14T15:17:28.389Z,35.20
2018-04-14T15:20:03.701Z,34.60
2018-04-14T15:22:38.776Z,33.40
2018-04-14T15:25:14.133Z,33.40
2018-04-14T15:27:49.850Z,33.80
2018-04-14T15:30:25.933Z,33.90
2018-04-14T15:33:01.235Z,33.90
2018-04-14T15:35:36.598Z,34.20
2018-04-14T15:38:11.969Z,36.00
2018-04-14T15:40:47.133Z,34.00
2018-04-14T15:43:22.178Z,33.60
2018-04-14T15:45:57.453Z,33.80
2018-04-14T15:48:33.410Z,34.20
2018-04-14T15:51:09.268Z,34.20
2018-04-14T15:53:45.234Z,34.70
2018-04-14T15:56:20.374Z,34.70
2018-04-14T15:58:55.812Z,36.00
2018-04-14T16:01:31.228Z,34.70
2018-04-14T16:04:09.789Z,34.70
2018-04-14T16:06:41.747Z,34.70
2018-04-14T16:09:16.978Z,35.20
2018-04-14T16:11:52.290Z,36.00
2018-04-14T16:14:27.626Z,35.70
2018-04-14T16:17:02.908Z,36.00
2018-04-14T16:19:38.832Z,36.30
2018-04-14T16:22:14.072Z,36.30
2018-04-14T16:24:49.446Z,35.80
2018-04-14T16:27:24.592Z,35.80
2018-04-14T16:29:59.673Z,35.60
2018-04-14T16:32:35.588Z,35.80
2018-04-14T16:35:10.752Z,35.70
2018-04-14T16:37:46.759Z,35.60
2018-04-14T16:40:21.938Z,36.00
2018-04-14T16:42:57.211Z,36.30
2018-04-14T16:45:32.637Z,36.00
2018-04-14T16:48:08.728Z,37.20
2018-04-14T16:50:44.006Z,37.10
2018-04-14T16:53:19.309Z,37.10
2018-04-14T16:55:54.418Z,37.10
2018-04-14T16:58:30.323Z,37.30
2018-04-14T17:01:05.863Z,37.30
2018-04-14T17:03:41.032Z,37.50
2018-04-14T17:06:16.287Z,37.20
2018-04-14T17:08:51.446Z,36.70
2018-04-14T17:11:27.002Z,37.20
2018-04-14T17:14:02.277Z,37.90
2018-04-14T17:16:37.369Z,37.50
2018-04-14T17:19:12.675Z,37.50
2018-04-14T17:21:47.758Z,37.10
2018-04-14T17:24:23.736Z,37.50
2018-04-14T17:26:58.828Z,37.40
2018-04-14T17:29:34.148Z,37.50
2018-04-14T17:32:09.335Z,37.90
2018-04-14T17:34:45.010Z,37.90
2018-04-14T17:37:20.257Z,37.80
2018-04-14T17:39:55.511Z,38.30
2018-04-14T17:42:30.947Z,38.60
2018-04-14T17:45:06.253Z,38.80
2018-04-14T17:47:41.458Z,39.10
2018-04-14T17:50:16.750Z,40.10
2018-04-14T17:52:52.810Z,39.90
2018-04-14T17:55:28.116Z,39.90
2018-04-14T17:58:03.394Z,40.10
2018-04-14T18:00:38.533Z,40.20
2018-04-14T18:03:13.869Z,41.20
2018-04-14T18:05:49.719Z,42.60
2018-04-14T18:08:24.968Z,42.60
2018-04-14T18:11:00.210Z,44.70
2018-04-14T18:13:35.480Z,45.20
2018-04-14T18:16:10.592Z,48.20
2018-04-14T18:18:46.904Z,47.10
2018-04-14T18:21:23.026Z,47.80
2018-04-14T18:23:58.297Z,47.80
2018-04-14T18:26:33.565Z,49.50
2018-04-14T18:29:08.786Z,50.90
2018-04-14T18:31:44.130Z,49.70
2018-04-14T18:34:19.408Z,50.10
2018-04-14T18:36:54.723Z,50.20
2018-04-14T18:39:30.081Z,51.00
2018-04-14T18:42:05.424Z,52.20
2018-04-14T18:44:40.710Z,51.80
2018-04-14T18:47:16.735Z,52.50
2018-04-14T18:49:51.861Z,52.20
2018-04-14T18:52:27.916Z,52.50
2018-04-14T18:55:03.093Z,52.50
2018-04-14T18:57:38.401Z,54.70
2018-04-14T19:00:13.708Z,53.40
2018-04-14T19:02:48.926Z,56.50
2018-04-14T19:05:24.209Z,52.80
2018-04-14T19:07:59.522Z,57.90
2018-04-14T19:10:34.737Z,57.60
2018-04-14T19:13:10.687Z,59.00
2018-04-14T19:15:46.659Z,58.10
2018-04-14T19:18:22.655Z,63.20
2018-04-14T19:20:57.944Z,63.20
2018-04-14T19:23:33.025Z,63.30
2018-04-14T19:26:08.227Z,61.30
2018-04-14T19:28:43.551Z,59.20
2018-04-14T19:31:19.457Z,58.90
2018-04-14T19:33:54.795Z,58.90
2018-04-14T19:36:30.133Z,58.90
2018-04-14T19:39:08.353Z,63.80
2018-04-14T19:41:43.579Z,66.70
2018-04-14T19:44:20.092Z,64.00
2018-04-14T19:46:56.140Z,64.40
2018-04-14T19:49:31.989Z,64.80
2018-04-14T19:52:07.905Z,64.20
2018-04-14T19:54:43.164Z,64.30
2018-04-14T19:57:18.425Z,65.20
2018-04-14T19:59:53.899Z,64.90
2018-04-14T20:02:29.411Z,66.40
2018-04-14T20:05:04.856Z,65.60
2018-04-14T20:07:40.080Z,66.70
2018-04-14T20:10:15.453Z,69.60
2018-04-14T20:12:50.792Z,68.70
2018-04-14T20:15:27.128Z,69.30
2018-04-14T20:18:03.117Z,68.70
2018-04-14T20:20:38.223Z,68.70
2018-04-14T20:23:13.672Z,69.00
2018-04-14T20:25:48.800Z,69.50
2018-04-14T20:28:24.145Z,70.70
2018-04-14T20:31:00.121Z,69.60
2018-04-14T20:33:35.249Z,69.60
2018-04-14T20:36:10.568Z,70.40
2018-04-14T20:38:45.804Z,69.60
2018-04-14T20:41:21.087Z,69.50
2018-04-14T20:43:56.321Z,68.50
2018-04-14T20:46:35.997Z,68.20
2018-04-14T20:49:11.295Z,68.20
2018-04-14T20:51:46.620Z,68.30
2018-04-14T20:54:21.897Z,68.40
2018-04-14T20:56:57.859Z,71.60
2018-04-14T20:59:32.968Z,71.50
2018-04-14T21:02:08.236Z,74.30
2018-04-14T21:04:43.504Z,76.20
2018-04-14T21:07:18.676Z,75.80
2018-04-14T21:09:54.731Z,77.20
2018-04-14T21:12:29.901Z,77.20
2018-04-14T21:15:05.083Z,76.50
2018-04-14T21:17:41.113Z,76.00
2018-04-14T21:20:16.273Z,74.80
2018-04-14T21:22:51.388Z,73.60
2018-04-14T21:25:26.602Z,73.60
2018-04-14T21:28:01.990Z,72.60
2018-04-14T21:30:37.297Z,72.50
2018-04-14T21:33:13.349Z,73.00
2018-04-14T21:35:49.274Z,72.30
2018-04-14T21:38:24.478Z,72.20
2018-04-14T21:40:59.678Z,72.60
2018-04-14T21:43:35.427Z,73.40
2018-04-14T21:46:10.681Z,74.40
2018-04-14T21:48:45.929Z,74.20
2018-04-14T21:51:21.236Z,73.90
2018-04-14T21:53:56.505Z,74.00
2018-04-14T21:56:31.759Z,73.20
2018-04-14T21:59:07.028Z,74.40
2018-04-14T22:01:42.940Z,75.30
2018-04-14T22:04:18.877Z,75.40
2018-04-14T22:06:53.990Z,75.30
2018-04-14T22:09:29.281Z,75.90
2018-04-14T22:12:05.271Z,76.00
2018-04-14T22:14:40.505Z,75.90
2018-04-14T22:17:15.740Z,76.30
2018-04-14T22:19:51.081Z,76.10
2018-04-14T22:22:26.297Z,75.50
2018-04-14T22:25:02.209Z,74.20
2018-04-14T22:27:37.350Z,74.10
2018-04-14T22:30:12.572Z,73.60
2018-04-14T22:32:47.920Z,73.40
2018-04-14T22:35:23.239Z,73.70
2018-04-14T22:37:59.217Z,73.60
2018-04-14T22:40:35.709Z,74.10
2018-04-14T22:43:11.849Z,74.40
2018-04-14T22:45:47.139Z,74.50
2018-04-14T22:48:22.472Z,74.80
2018-04-14T22:50:58.422Z,75.20
2018-04-14T22:53:33.847Z,75.20
2018-04-14T22:56:09.083Z,75.40
2018-04-14T22:58:44.507Z,75.40
2018-04-14T23:01:19.776Z,75.90
2018-04-14T23:03:55.021Z,76.10
2018-04-14T23:06:31.041Z,76.20
2018-04-14T23:09:07.226Z,76.10
2018-04-14T23:11:42.652Z,75.90
2018-04-14T23:14:17.911Z,77.30
2018-04-14T23:16:53.385Z,78.90
2018-04-14T23:19:28.486Z,78.90
2018-04-14T23:22:03.813Z,79.10
2018-04-14T23:24:38.944Z,79.30
2018-04-14T23:27:14.153Z,78.60
2018-04-14T23:29:50.064Z,80.30
2018-04-14T23:32:25.132Z,80.30
2018-04-14T23:35:01.153Z,80.20
2018-04-14T23:37:36.476Z,79.60
2018-04-14T23:40:11.771Z,79.10
2018-04-14T23:42:47.750Z,80.40
2018-04-14T23:45:22.940Z,80.40
2018-04-14T23:47:58.900Z,80.10
2018-04-14T23:50:34.813Z,80.00
2018-04-14T23:53:10.029Z,80.00
2018-04-14T23:55:45.286Z,80.10
2018-04-14T23:58:21.265Z,79.00
